Time;durP1;ratioP1;P1;durP2;ratioP2;P2;SDS_P1;SDS_P2;PMS_P1;PMS_P2;Temp;Humidity;BMP_temperature;BMP_pressure;BME280_temperature;BME280_humidity;BME280_pressure;Samples;Min_cycle;Max_cycle;Signal;HPM_P1;HPM_P2
2022/08/05 00:01:27;;;;;;;3.80;2.70;;;;;;;;;;4841366;29;20049;-70
2022/08/05 00:03:53;;;;;;;6.80;2.90;;;;;;;;;;4841495;29;20030;-70
2022/08/05 00:06:20;;;;;;;4.15;2.50;;;;;;;;;;4841025;29;20440;-71
2022/08/05 00:08:46;;;;;;;8.57;2.90;;;;;;;;;;4840183;29;20030;-70
2022/08/05 00:11:14;;;;;;;3.67;2.55;;;;;;;;;;4841247;29;20429;-70
2022/08/05 00:13:41;;;;;;;3.70;2.72;;;;;;;;;;4840696;29;20040;-70
2022/08/05 00:16:12;;;;;;;2.80;2.60;;;;;;;;;;4841421;29;20030;-70
2022/08/05 00:18:38;;;;;;;3.15;2.53;;;;;;;;;;4849428;29;20432;-70
2022/08/05 00:21:05;;;;;;;3.45;2.70;;;;;;;;;;4859177;29;20423;-71
2022/08/05 00:23:32;;;;;;;3.15;2.47;;;;;;;;;;4859354;29;20543;-71
2022/08/05 00:25:58;;;;;;;3.50;2.53;;;;;;;;;;4859319;29;20030;-70
2022/08/05 00:28:24;;;;;;;3.22;2.50;;;;;;;;;;4861063;29;20042;-70
2022/08/05 00:30:51;;;;;;;3.53;2.40;;;;;;;;;;4863058;29;20033;-70
2022/08/05 00:33:17;;;;;;;4.95;2.92;;;;;;;;;;4862761;29;20469;-70
2022/08/05 00:35:43;;;;;;;4.95;2.53;;;;;;;;;;4862938;29;20034;-70
2022/08/05 00:38:10;;;;;;;5.72;2.50;;;;;;;;;;4862865;29;20033;-70
2022/08/05 00:40:45;;;;;;;2.95;2.20;;;;;;;;;;4862028;29;20499;-70
2022/08/05 00:43:11;;;;;;;3.40;2.47;;;;;;;;;;4862813;29;20036;-70
2022/08/05 00:45:37;;;;;;;5.32;2.70;;;;;;;;;;4862715;29;20018;-70
2022/08/05 00:48:04;;;;;;;6.85;2.88;;;;;;;;;;4862455;29;20060;-70
2022/08/05 00:50:30;;;;;;;3.97;2.58;;;;;;;;;;4862573;29;20033;-70
2022/08/05 00:52:56;;;;;;;3.10;2.80;;;;;;;;;;4847266;29;20040;-70
2022/08/05 00:55:23;;;;;;;3.97;2.78;;;;;;;;;;4843869;29;20396;-71
2022/08/05 00:57:49;;;;;;;4.75;2.78;;;;;;;;;;4843687;29;20086;-70
2022/08/05 01:00:15;;;;;;;6.32;2.70;;;;;;;;;;4843643;29;20038;-70
2022/08/05 01:02:42;;;;;;;3.85;2.63;;;;;;;;;;4844033;29;20038;-70
2022/08/05 01:05:08;;;;;;;3.97;2.63;;;;;;;;;;4843968;29;20026;-70
2022/08/05 01:07:34;;;;;;;5.35;2.83;;;;;;;;;;4843559;29;20480;-70
2022/08/05 01:10:01;;;;;;;4.18;3.00;;;;;;;;;;4843627;29;20032;-70
2022/08/05 01:12:27;;;;;;;5.43;3.15;;;;;;;;;;4843581;29;20037;-70
2022/08/05 01:15:05;;;;;;;3.95;3.00;;;;;;;;;;4827157;29;20032;-70
2022/08/05 01:17:46;;;;;;;3.92;2.90;;;;;;;;;;4843303;29;20403;-69
2022/08/05 01:20:25;;;;;;;3.80;2.45;;;;;;;;;;4858715;29;20503;-70
2022/08/05 01:23:07;;;;;;;5.15;3.03;;;;;;;;;;4862284;29;20058;-70
2022/08/05 01:25:51;;;;;;;4.55;2.78;;;;;;;;;;4862068;29;20048;-70
2022/08/05 01:28:18;;;;;;;3.60;2.70;;;;;;;;;;4861871;29;20029;-70
2022/08/05 01:31:04;;;;;;;5.53;3.30;;;;;;;;;;4862088;29;20021;-70
2022/08/05 01:33:33;;;;;;;4.28;2.80;;;;;;;;;;4862048;29;20077;-71
2022/08/05 01:36:00;;;;;;;3.03;2.67;;;;;;;;;;4861558;29;20040;-70
2022/08/05 01:38:27;;;;;;;4.32;3.30;;;;;;;;;;4861138;29;20036;-70
2022/08/05 01:40:55;;;;;;;4.07;3.00;;;;;;;;;;4860582;29;20057;-70
2022/08/05 01:43:22;;;;;;;5.55;2.75;;;;;;;;;;4861545;29;20478;-70
2022/08/05 01:45:48;;;;;;;3.42;3.08;;;;;;;;;;4861293;29;20033;-70
2022/08/05 01:48:16;;;;;;;5.95;3.15;;;;;;;;;;4844620;29;20036;-70
2022/08/05 01:50:43;;;;;;;3.83;2.97;;;;;;;;;;4861589;29;20039;-70
2022/08/05 01:53:11;;;;;;;5.18;3.35;;;;;;;;;;4860915;29;20025;-71
2022/08/05 01:55:39;;;;;;;3.33;2.90;;;;;;;;;;4861475;29;20491;-70
2022/08/05 01:58:06;;;;;;;3.17;2.88;;;;;;;;;;4861260;29;20033;-70
2022/08/05 02:00:34;;;;;;;3.50;3.05;;;;;;;;;;4861128;29;20422;-70
2022/08/05 02:03:06;;;;;;;9.20;3.05;;;;;;;;;;4861357;29;20033;-70
2022/08/05 02:05:34;;;;;;;2.95;2.67;;;;;;;;;;4861117;29;20029;-69
2022/08/05 02:08:00;;;;;;;6.63;3.33;;;;;;;;;;4860645;29;20479;-70
2022/08/05 02:10:28;;;;;;;5.35;3.20;;;;;;;;;;4861098;29;20026;-70
2022/08/05 02:12:56;;;;;;;4.97;2.97;;;;;;;;;;4861094;29;20047;-70
2022/08/05 02:15:28;;;;;;;4.15;3.22;;;;;;;;;;4861214;29;20386;-69
2022/08/05 02:18:05;;;;;;;3.60;2.92;;;;;;;;;;4860798;29;20054;-70
2022/08/05 02:20:36;;;;;;;4.47;3.03;;;;;;;;;;4860584;29;20067;-70
2022/08/05 02:23:05;;;;;;;5.57;2.92;;;;;;;;;;4860361;29;20036;-70
2022/08/05 02:25:33;;;;;;;9.18;2.95;;;;;;;;;;4860915;29;20029;-70
2022/08/05 02:28:01;;;;;;;4.03;2.80;;;;;;;;;;4860894;29;20030;-69
2022/08/05 02:30:32;;;;;;;4.13;2.80;;;;;;;;;;4860557;29;20025;-70
2022/08/05 02:32:58;;;;;;;;;;;;;;;;;;4861037;29;20048;-70
2022/08/05 02:35:25;;;;;;;4.97;2.95;;;;;;;;;;4860798;29;19911;-70
2022/08/05 02:37:53;;;;;;;7.38;3.30;;;;;;;;;;4860164;29;20025;-70
2022/08/05 02:40:20;;;;;;;5.70;3.30;;;;;;;;;;4860565;29;20036;-70
2022/08/05 02:42:47;;;;;;;4.80;3.33;;;;;;;;;;4860738;29;20043;-70
2022/08/05 02:45:14;;;;;;;4.85;3.20;;;;;;;;;;4860346;29;20503;-69
2022/08/05 02:47:40;;;;;;;10.95;3.30;;;;;;;;;;4860364;29;20029;-69
2022/08/05 02:50:07;;;;;;;4.22;3.13;;;;;;;;;;4860061;29;20077;-69
2022/08/05 02:52:34;;;;;;;4.75;3.13;;;;;;;;;;4860161;29;20044;-69
2022/08/05 02:55:01;;;;;;;4.50;3.42;;;;;;;;;;4860658;29;20028;-69
2022/08/05 02:57:27;;;;;;;5.32;3.10;;;;;;;;;;4860315;29;20034;-69
2022/08/05 02:59:54;;;;;;;3.85;2.97;;;;;;;;;;4859942;29;20063;-69
2022/08/05 03:02:22;;;;;;;4.35;3.08;;;;;;;;;;4860263;29;20025;-68
2022/08/05 03:04:50;;;;;;;3.60;3.25;;;;;;;;;;4860145;29;20029;-70
2022/08/05 03:07:18;;;;;;;3.38;3.05;;;;;;;;;;4860021;29;20031;-70
2022/08/05 03:09:44;;;;;;;6.95;3.22;;;;;;;;;;4860231;29;20025;-69
2022/08/05 03:12:28;;;;;;;4.57;3.22;;;;;;;;;;4860284;29;20030;-70
2022/08/05 03:14:55;;;;;;;4.53;3.10;;;;;;;;;;4860425;29;20037;-69
2022/08/05 03:17:21;;;;;;;3.28;2.97;;;;;;;;;;4860066;29;20134;-69
2022/08/05 03:19:47;;;;;;;3.42;3.03;;;;;;;;;;4859465;29;20054;-69
2022/08/05 03:22:13;;;;;;;4.65;3.28;;;;;;;;;;4859533;29;20037;-69
2022/08/05 03:24:41;;;;;;;3.67;3.38;;;;;;;;;;4859580;29;20017;-70
2022/08/05 03:27:07;;;;;;;3.67;3.28;;;;;;;;;;4859457;29;20100;-69
2022/08/05 03:29:34;;;;;;;4.88;3.45;;;;;;;;;;4859820;29;20052;-70
2022/08/05 03:32:00;;;;;;;5.57;3.33;;;;;;;;;;4859911;29;20029;-69
2022/08/05 03:34:27;;;;;;;4.78;3.30;;;;;;;;;;4859679;29;20029;-70
2022/08/05 03:36:53;;;;;;;4.03;3.28;;;;;;;;;;4859438;29;20026;-70
2022/08/05 03:39:20;;;;;;;6.03;3.60;;;;;;;;;;4860089;29;20036;-70
2022/08/05 03:41:46;;;;;;;3.17;2.88;;;;;;;;;;4859640;29;20436;-70
2022/08/05 03:44:12;;;;;;;4.75;3.40;;;;;;;;;;4859935;29;20032;-70
2022/08/05 03:46:39;;;;;;;4.40;3.40;;;;;;;;;;4859798;29;20436;-70
2022/08/05 03:49:05;;;;;;;4.93;3.65;;;;;;;;;;4859230;29;20045;-70
2022/08/05 03:51:35;;;;;;;5.63;3.42;;;;;;;;;;4859708;29;20026;-69
2022/08/05 03:54:07;;;;;;;6.78;3.40;;;;;;;;;;4859929;29;20029;-70
2022/08/05 03:56:41;;;;;;;3.72;3.42;;;;;;;;;;4859585;29;20319;-70
2022/08/05 03:59:10;;;;;;;5.50;3.60;;;;;;;;;;4859558;29;20073;-70
2022/08/05 04:01:39;;;;;;;3.92;3.53;;;;;;;;;;4859485;29;20037;-70
2022/08/05 04:04:06;;;;;;;5.70;3.28;;;;;;;;;;4862370;29;20021;-70
2022/08/05 04:06:35;;;;;;;4.35;3.22;;;;;;;;;;4863348;29;20037;-70
2022/08/05 04:09:02;;;;;;;6.03;3.20;;;;;;;;;;4863347;29;20115;-70
2022/08/05 04:11:28;;;;;;;4.00;3.30;;;;;;;;;;4863459;29;20033;-70
2022/08/05 04:13:55;;;;;;;5.35;3.30;;;;;;;;;;4863225;29;20406;-70
2022/08/05 04:16:21;;;;;;;7.00;3.92;;;;;;;;;;4863286;29;20060;-70
2022/08/05 04:18:48;;;;;;;3.95;3.20;;;;;;;;;;4862466;29;20410;-70
2022/08/05 04:21:14;;;;;;;5.25;3.78;;;;;;;;;;4862782;29;20053;-70
2022/08/05 04:23:40;;;;;;;4.85;3.38;;;;;;;;;;4862893;29;20040;-70
2022/08/05 04:26:07;;;;;;;5.10;3.45;;;;;;;;;;4862928;29;20476;-70
2022/08/05 04:28:33;;;;;;;4.18;3.42;;;;;;;;;;4846496;29;20033;-70
2022/08/05 04:30:59;;;;;;;5.13;3.20;;;;;;;;;;4863287;29;20053;-70
2022/08/05 04:33:26;;;;;;;5.15;3.25;;;;;;;;;;4846111;29;20034;-70
2022/08/05 04:35:53;;;;;;;7.13;3.70;;;;;;;;;;4862521;29;20513;-70
2022/08/05 04:38:19;;;;;;;5.25;3.40;;;;;;;;;;4862656;29;20036;-70
2022/08/05 04:40:45;;;;;;;3.95;3.55;;;;;;;;;;4862741;29;20033;-70
2022/08/05 04:43:12;;;;;;;4.00;3.45;;;;;;;;;;4862884;29;20410;-70
2022/08/05 04:45:38;;;;;;;5.32;3.50;;;;;;;;;;4863225;29;20026;-70
2022/08/05 04:48:06;;;;;;;5.88;3.65;;;;;;;;;;4862343;29;20036;-70
2022/08/05 04:50:37;;;;;;;4.63;3.38;;;;;;;;;;4862468;29;20021;-70
2022/08/05 04:53:03;;;;;;;6.07;3.45;;;;;;;;;;4862702;29;20043;-70
2022/08/05 04:55:30;;;;;;;10.77;3.60;;;;;;;;;;4862526;29;20172;-70
2022/08/05 04:57:56;;;;;;;4.05;3.25;;;;;;;;;;4862459;29;20487;-69
2022/08/05 05:00:22;;;;;;;5.75;3.55;;;;;;;;;;4862190;29;20040;-70
2022/08/05 05:02:49;;;;;;;4.63;3.30;;;;;;;;;;4861956;29;20061;-70
2022/08/05 05:05:16;;;;;;;5.57;4.10;;;;;;;;;;4862364;29;20033;-69
2022/08/05 05:07:42;;;;;;;7.53;3.40;;;;;;;;;;4862215;29;20073;-69
2022/08/05 05:10:09;;;;;;;4.03;3.58;;;;;;;;;;4862378;29;20032;-69
2022/08/05 05:12:35;;;;;;;9.55;3.90;;;;;;;;;;4861904;29;20045;-69
2022/08/05 05:15:01;;;;;;;6.28;3.55;;;;;;;;;;4861770;29;20048;-70
2022/08/05 05:17:28;;;;;;;4.05;3.40;;;;;;;;;;4861688;29;20510;-69
2022/08/05 05:19:54;;;;;;;4.25;3.85;;;;;;;;;;4861326;29;20049;-69
2022/08/05 05:22:20;;;;;;;6.25;3.50;;;;;;;;;;4845488;29;20048;-70
2022/08/05 05:24:47;;;;;;;4.90;3.40;;;;;;;;;;4862123;29;20025;-69
2022/08/05 05:27:13;;;;;;;4.93;3.28;;;;;;;;;;4861970;29;20034;-70
2022/08/05 05:29:39;;;;;;;3.92;3.47;;;;;;;;;;4861631;29;20403;-70
2022/08/05 05:32:06;;;;;;;7.82;3.70;;;;;;;;;;4845398;29;20030;-70
2022/08/05 05:34:32;;;;;;;5.63;3.95;;;;;;;;;;4861563;29;20085;-70
2022/08/05 05:36:59;;;;;;;5.85;3.90;;;;;;;;;;4861783;29;20034;-70
2022/08/05 05:39:25;;;;;;;7.97;4.00;;;;;;;;;;4861637;29;20107;-70
2022/08/05 05:41:51;;;;;;;6.00;3.80;;;;;;;;;;4861671;29;20033;-70
2022/08/05 05:44:18;;;;;;;7.63;3.65;;;;;;;;;;4861472;29;20025;-69
2022/08/05 05:46:44;;;;;;;6.35;3.67;;;;;;;;;;4861016;29;20414;-69
2022/08/05 05:49:10;;;;;;;8.55;3.78;;;;;;;;;;4861493;29;20021;-70
2022/08/05 05:51:36;;;;;;;7.53;3.75;;;;;;;;;;4861232;29;20025;-70
2022/08/05 05:54:03;;;;;;;10.40;3.67;;;;;;;;;;4844801;29;20038;-70
2022/08/05 05:56:30;;;;;;;7.38;3.85;;;;;;;;;;4861586;29;20030;-70
2022/08/05 05:58:56;;;;;;;5.72;3.80;;;;;;;;;;4861400;29;20119;-70
2022/08/05 06:01:22;;;;;;;7.78;3.80;;;;;;;;;;4860635;29;20041;-69
2022/08/05 06:03:49;;;;;;;9.15;4.15;;;;;;;;;;4860997;29;20031;-69
2022/08/05 06:06:15;;;;;;;5.40;4.07;;;;;;;;;;4861314;29;20044;-70
2022/08/05 06:08:43;;;;;;;7.78;4.15;;;;;;;;;;4860887;29;20036;-70
2022/08/05 06:11:09;;;;;;;12.93;4.68;;;;;;;;;;4858985;29;20037;-69
2022/08/05 06:13:35;;;;;;;7.55;4.22;;;;;;;;;;4840680;29;20022;-66
2022/08/05 06:16:02;;;;;;;14.27;4.50;;;;;;;;;;4846840;29;20038;-65
2022/08/05 06:18:28;;;;;;;7.32;3.90;;;;;;;;;;4842261;29;20179;-65
2022/08/05 06:20:54;;;;;;;6.18;3.67;;;;;;;;;;4855017;29;20045;-65
2022/08/05 06:23:21;;;;;;;7.63;4.10;;;;;;;;;;4858602;29;20067;-66
2022/08/05 06:25:47;;;;;;;5.40;4.00;;;;;;;;;;4836706;29;20034;-66
2022/08/05 06:28:14;;;;;;;8.30;4.40;;;;;;;;;;4838627;29;20029;-65
2022/08/05 06:30:40;;;;;;;11.68;4.47;;;;;;;;;;4838454;29;20048;-66
2022/08/05 06:33:06;;;;;;;6.35;4.07;;;;;;;;;;4840405;29;20032;-65
2022/08/05 06:35:33;;;;;;;10.65;3.97;;;;;;;;;;4839346;29;20044;-66
2022/08/05 06:37:59;;;;;;;10.00;3.90;;;;;;;;;;4839907;29;20054;-66
2022/08/05 06:40:25;;;;;;;8.43;4.30;;;;;;;;;;4839272;29;20032;-66
2022/08/05 06:42:52;;;;;;;8.40;3.75;;;;;;;;;;4848109;29;20121;-66
2022/08/05 06:45:18;;;;;;;4.40;4.00;;;;;;;;;;4858125;29;20036;-66
2022/08/05 06:47:44;;;;;;;8.88;4.25;;;;;;;;;;4858071;29;20506;-66
2022/08/05 06:50:10;;;;;;;6.85;4.40;;;;;;;;;;4843988;29;20037;-66
2022/08/05 06:52:37;;;;;;;6.47;4.40;;;;;;;;;;4845438;29;20038;-66
2022/08/05 06:55:03;;;;;;;10.38;4.15;;;;;;;;;;4838419;29;20030;-66
2022/08/05 06:57:29;;;;;;;9.90;3.95;;;;;;;;;;4839080;29;20048;-65
2022/08/05 06:59:56;;;;;;;9.85;4.15;;;;;;;;;;4838621;29;20041;-65
2022/08/05 07:02:22;;;;;;;8.68;3.50;;;;;;;;;;4838722;29;20034;-66
2022/08/05 07:04:48;;;;;;;6.22;4.45;;;;;;;;;;4822615;29;20026;-65
2022/08/05 07:07:15;;;;;;;11.07;3.85;;;;;;;;;;4839136;29;20102;-65
2022/08/05 07:09:41;;;;;;;6.40;3.70;;;;;;;;;;4838972;29;20026;-65
2022/08/05 07:16:47;;;;;;;9.85;3.90;;;;;;;;;;4838993;29;20574;-65
2022/08/05 07:17:39;;;;;;;5.27;4.10;;;;;;;;;;4789869;29;1183393;-65
2022/08/05 07:20:05;;;;;;;5.03;4.05;;;;;;;;;;4846153;29;22740;-66
2022/08/05 07:22:32;;;;;;;15.75;4.70;;;;;;;;;;4858481;29;20060;-66
2022/08/05 07:24:58;;;;;;;14.10;5.88;;;;;;;;;;4845277;29;20030;-66
2022/08/05 07:27:25;;;;;;;12.70;4.70;;;;;;;;;;4839300;29;20034;-66
2022/08/05 07:29:51;;;;;;;6.43;4.60;;;;;;;;;;4839837;29;20095;-66
2022/08/05 07:32:17;;;;;;;7.05;4.75;;;;;;;;;;4839491;29;20018;-66
2022/08/05 07:34:44;;;;;;;7.82;3.67;;;;;;;;;;4839832;29;20045;-66
2022/08/05 07:37:10;;;;;;;9.63;4.93;;;;;;;;;;4839959;29;20034;-66
2022/08/05 07:39:36;;;;;;;7.00;4.65;;;;;;;;;;4842141;29;20041;-64
2022/08/05 07:42:03;;;;;;;11.93;4.47;;;;;;;;;;4842702;29;20049;-66
2022/08/05 07:44:29;;;;;;;10.80;4.13;;;;;;;;;;4842979;29;20028;-65
2022/08/05 07:46:55;;;;;;;11.82;3.75;;;;;;;;;;4843560;29;20038;-66
2022/08/05 07:49:22;;;;;;;10.23;4.30;;;;;;;;;;4843269;29;20026;-66
2022/08/05 07:51:48;;;;;;;9.02;3.85;;;;;;;;;;4842824;29;20030;-66
2022/08/05 07:54:14;;;;;;;10.95;3.85;;;;;;;;;;4843071;29;20018;-66
2022/08/05 07:56:41;;;;;;;9.95;4.05;;;;;;;;;;4842781;29;20030;-66
2022/08/05 07:59:07;;;;;;;12.35;4.10;;;;;;;;;;4842693;29;20038;-65
2022/08/05 08:01:33;;;;;;;9.77;4.35;;;;;;;;;;4842893;29;20048;-65
2022/08/05 08:04:00;;;;;;;9.57;4.18;;;;;;;;;;4826108;29;20026;-66
2022/08/05 08:06:26;;;;;;;10.25;4.10;;;;;;;;;;4842785;29;20034;-65
2022/08/05 08:08:52;;;;;;;8.43;3.95;;;;;;;;;;4843142;29;20014;-66
2022/08/05 08:11:19;;;;;;;7.07;3.72;;;;;;;;;;4842247;29;20030;-65
2022/08/05 08:13:45;;;;;;;7.72;3.88;;;;;;;;;;4842780;29;20034;-66
2022/08/05 08:16:11;;;;;;;14.57;3.80;;;;;;;;;;4842636;29;20041;-66
2022/08/05 08:18:38;;;;;;;6.32;3.75;;;;;;;;;;4846157;29;20042;-66
2022/08/05 08:21:05;;;;;;;11.23;3.92;;;;;;;;;;4835689;29;20529;-66
2022/08/05 08:23:31;;;;;;;10.57;4.07;;;;;;;;;;4860670;29;20022;-66
2022/08/05 08:25:58;;;;;;;7.35;4.05;;;;;;;;;;4848177;29;20029;-65
2022/08/05 08:41:10;;;;;;;9.25;3.83;;;;;;;;;;5107160;27;20407;-67
2022/08/05 08:43:37;;;;;;;12.02;3.83;;;;;;;;;;5107348;28;20028;-67
2022/08/05 08:46:04;;;;;;;5.18;3.15;;;;;;;;;;5108405;28;20035;-66
2022/08/05 08:48:31;;;;;;;10.10;3.90;;;;;;;;;;5107671;28;20028;-65
2022/08/05 08:50:57;;;;;;;9.63;3.88;;;;;;;;;;5108669;28;20050;-66
2022/08/05 08:53:24;;;;;;;10.52;3.20;;;;;;;;;;5109483;28;20024;-66
2022/08/05 08:55:50;;;;;;;7.90;3.22;;;;;;;;;;5129555;28;20039;-66
2022/08/05 08:58:17;;;;;;;8.27;3.42;;;;;;;;;;5122517;28;20054;-66
2022/08/05 09:00:45;;;;;;;9.18;3.67;;;;;;;;;;5102861;28;20042;-66
2022/08/05 09:03:11;;;;;;;7.65;2.90;;;;;;;;;;5108387;28;20024;-66
2022/08/05 09:05:38;;;;;;;8.30;3.38;;;;;;;;;;5108508;28;20059;-66
2022/08/05 09:08:04;;;;;;;11.20;3.47;;;;;;;;;;5108723;28;20485;-67
2022/08/05 09:10:31;;;;;;;12.43;3.38;;;;;;;;;;5108409;28;20028;-66
2022/08/05 09:12:57;;;;;;;9.10;3.28;;;;;;;;;;5108843;28;20028;-66
2022/08/05 09:15:24;;;;;;;11.35;3.40;;;;;;;;;;5106610;28;20020;-66
2022/08/05 09:17:50;;;;;;;15.13;3.22;;;;;;;;;;5107107;28;20032;-67
2022/08/05 09:20:17;;;;;;;8.95;3.35;;;;;;;;;;5108939;28;20056;-67
2022/08/05 09:23:02;;;;;;;9.35;3.10;;;;;;;;;;5108446;28;20034;-68
2022/08/05 09:25:28;;;;;;;9.40;3.58;;;;;;;;;;5105474;28;20016;-68
2022/08/05 09:27:55;;;;;;;7.53;2.80;;;;;;;;;;5108346;28;20016;-68
2022/08/05 09:30:21;;;;;;;6.40;2.97;;;;;;;;;;5108347;28;20442;-68
2022/08/05 09:32:47;;;;;;;13.27;3.17;;;;;;;;;;5107343;28;20520;-68
2022/08/05 09:35:15;;;;;;;9.27;3.45;;;;;;;;;;5107340;28;20022;-68
2022/08/05 09:37:51;;;;;;;7.50;2.70;;;;;;;;;;5107564;28;20023;-68
2022/08/05 09:40:33;;;;;;;10.20;2.92;;;;;;;;;;5104134;28;20886;-69
2022/08/05 09:43:02;;;;;;;7.93;2.72;;;;;;;;;;5084875;28;20032;-69
2022/08/05 09:45:41;;;;;;;6.65;2.90;;;;;;;;;;5094476;28;20023;-68
2022/08/05 09:48:20;;;;;;;5.13;2.70;;;;;;;;;;5093769;28;20020;-68
2022/08/05 09:50:50;;;;;;;8.75;3.10;;;;;;;;;;5094081;28;20032;-68
2022/08/05 09:53:17;;;;;;;7.38;2.42;;;;;;;;;;5094066;28;20030;-69
2022/08/05 09:55:43;;;;;;;8.65;2.67;;;;;;;;;;5093211;28;20028;-68
2022/08/05 09:58:13;;;;;;;6.55;2.85;;;;;;;;;;5093127;28;20030;-68
2022/08/05 10:00:40;;;;;;;7.07;3.05;;;;;;;;;;5093158;28;20028;-68
2022/08/05 10:03:10;;;;;;;4.18;2.22;;;;;;;;;;5090840;28;20032;-69
2022/08/05 10:05:37;;;;;;;5.55;2.30;;;;;;;;;;5093258;28;20501;-68
2022/08/05 10:08:05;;;;;;;7.80;2.72;;;;;;;;;;5092890;28;20026;-68
2022/08/05 10:10:31;;;;;;;4.85;2.72;;;;;;;;;;5092681;28;20036;-68
2022/08/05 10:12:58;;;;;;;9.88;3.10;;;;;;;;;;5092112;28;20504;-68
2022/08/05 10:15:32;;;;;;;4.47;2.63;;;;;;;;;;5093674;28;20020;-68
2022/08/05 10:18:04;;;;;;;9.13;2.28;;;;;;;;;;5093577;28;20512;-68
2022/08/05 10:20:35;;;;;;;5.22;2.33;;;;;;;;;;5093871;28;20028;-68
2022/08/05 10:23:02;;;;;;;5.43;2.65;;;;;;;;;;5093580;28;20374;-68
2022/08/05 10:25:28;;;;;;;12.27;2.90;;;;;;;;;;5093556;28;20026;-68
2022/08/05 10:27:54;;;;;;;9.88;2.97;;;;;;;;;;5093243;28;20016;-68
2022/08/05 10:30:21;;;;;;;5.07;2.70;;;;;;;;;;5091552;28;20058;-68
2022/08/05 10:32:48;;;;;;;9.57;2.75;;;;;;;;;;5093107;28;20046;-68
2022/08/05 10:35:14;;;;;;;6.82;2.70;;;;;;;;;;5093369;28;20501;-69
2022/08/05 10:37:41;;;;;;;5.97;2.53;;;;;;;;;;5093291;28;20028;-68
2022/08/05 10:40:14;;;;;;;4.53;2.40;;;;;;;;;;5093182;28;20047;-68
2022/08/05 10:42:41;;;;;;;11.10;3.05;;;;;;;;;;5092177;28;20035;-68
2022/08/05 10:45:08;;;;;;;5.95;2.70;;;;;;;;;;5093074;28;20032;-68
2022/08/05 10:47:39;;;;;;;8.65;2.80;;;;;;;;;;5093035;28;20393;-68
2022/08/05 10:50:15;;;;;;;10.13;2.50;;;;;;;;;;5093182;28;20034;-68
2022/08/05 10:52:51;;;;;;;6.97;2.95;;;;;;;;;;5092243;28;20020;-68
2022/08/05 10:55:18;;;;;;;9.13;2.90;;;;;;;;;;5093108;28;20028;-68
2022/08/05 10:57:45;;;;;;;7.70;2.47;;;;;;;;;;5093089;28;20378;-68
2022/08/05 11:00:15;;;;;;;8.05;2.92;;;;;;;;;;5092722;28;20446;-68
2022/08/05 11:03:00;;;;;;;7.95;2.80;;;;;;;;;;5093152;28;20024;-68
2022/08/05 11:05:26;;;;;;;5.35;2.65;;;;;;;;;;5093062;28;20021;-68
2022/08/05 11:08:01;;;;;;;7.63;3.00;;;;;;;;;;5093408;28;20031;-68
2022/08/05 11:10:28;;;;;;;7.78;2.70;;;;;;;;;;5092635;28;20031;-68
2022/08/05 11:12:54;;;;;;;8.60;3.22;;;;;;;;;;5092678;28;20020;-68
2022/08/05 11:15:29;;;;;;;8.82;2.60;;;;;;;;;;5092519;28;20036;-68
2022/08/05 11:18:23;;;;;;;5.60;2.90;;;;;;;;;;5093025;28;20411;-68
2022/08/05 11:20:50;;;;;;;9.80;3.03;;;;;;;;;;5092954;28;20012;-69
2022/08/05 11:23:29;;;;;;;9.75;2.83;;;;;;;;;;5092840;28;20038;-68
2022/08/05 11:26:06;;;;;;;9.15;2.88;;;;;;;;;;5092467;28;20016;-68
2022/08/05 11:28:32;;;;;;;9.35;3.17;;;;;;;;;;5092188;28;20054;-69
2022/08/05 11:31:02;;;;;;;10.55;2.90;;;;;;;;;;5092595;28;20028;-68
2022/08/05 11:33:55;;;;;;;4.93;2.70;;;;;;;;;;5092251;28;20023;-68
2022/08/05 11:36:43;;;;;;;4.30;2.97;;;;;;;;;;5084515;28;20039;-68
2022/08/05 11:39:13;;;;;;;12.15;3.20;;;;;;;;;;5118423;27;20044;-68
2022/08/05 11:41:40;;;;;;;;;;;;;;;;;;5091035;28;20038;-69
2022/08/05 11:44:14;;;;;;;8.52;3.22;;;;;;;;;;5090477;28;20411;-67
2022/08/05 11:46:42;;;;;;;6.57;2.92;;;;;;;;;;5088957;28;20505;-68
2022/08/05 11:49:14;;;;;;;7.90;2.90;;;;;;;;;;5091594;28;20028;-68
2022/08/05 11:51:44;;;;;;;12.32;3.33;;;;;;;;;;5090120;28;20020;-68
2022/08/05 11:54:12;;;;;;;6.63;2.65;;;;;;;;;;5089893;28;20024;-67
2022/08/05 11:56:44;;;;;;;8.38;3.08;;;;;;;;;;5090857;28;20055;-69
2022/08/05 11:59:18;;;;;;;6.93;2.92;;;;;;;;;;5090101;28;20020;-69
2022/08/05 12:02:14;;;;;;;9.32;3.08;;;;;;;;;;5091766;28;20027;-69
2022/08/05 12:04:44;;;;;;;9.90;2.85;;;;;;;;;;5078817;28;20085;-67
2022/08/05 12:07:10;;;;;;;;;;;;;;;;;;5091840;28;20512;-69
2022/08/05 12:09:38;;;;;;;13.68;2.78;;;;;;;;;;5091271;28;19980;-69
2022/08/05 12:12:05;;;;;;;5.32;2.88;;;;;;;;;;5090724;28;20008;-69
2022/08/05 12:14:35;;;;;;;8.43;2.90;;;;;;;;;;5091314;28;20024;-70
2022/08/05 12:17:06;;;;;;;8.18;3.13;;;;;;;;;;5091637;28;20038;-73
2022/08/05 12:19:40;;;;;;;7.47;3.17;;;;;;;;;;5090894;28;20028;-68
2022/08/05 12:22:06;;;;;;;11.10;3.08;;;;;;;;;;5091420;28;20024;-69
2022/08/05 12:24:32;;;;;;;7.07;3.10;;;;;;;;;;5091506;28;20020;-70
2022/08/05 12:27:00;;;;;;;8.05;2.70;;;;;;;;;;5090544;28;20389;-69
2022/08/05 12:29:28;;;;;;;6.07;2.78;;;;;;;;;;5091192;28;20034;-71
2022/08/05 12:31:55;;;;;;;8.60;3.33;;;;;;;;;;5090076;28;20016;-72
2022/08/05 12:34:27;;;;;;;6.68;2.75;;;;;;;;;;5090303;28;20022;-72
2022/08/05 12:36:54;;;;;;;7.53;2.90;;;;;;;;;;5091029;28;20065;-72
2022/08/05 12:39:22;;;;;;;13.02;2.95;;;;;;;;;;5090736;28;20490;-71
2022/08/05 12:41:48;;;;;;;12.88;3.00;;;;;;;;;;5090917;28;20036;-70
2022/08/05 12:44:17;;;;;;;6.72;3.05;;;;;;;;;;5090242;28;20042;-72
2022/08/05 12:46:51;;;;;;;9.38;2.90;;;;;;;;;;5090851;28;20393;-71
2022/08/05 12:49:17;;;;;;;7.80;2.80;;;;;;;;;;5091133;28;20044;-72
2022/08/05 12:51:48;;;;;;;7.85;2.72;;;;;;;;;;5091160;28;20496;-75
2022/08/05 12:54:14;;;;;;;;;;;;;;;;;;5091739;28;20028;-75
2022/08/05 12:56:42;;;;;;;4.32;2.90;;;;;;;;;;5090214;28;19911;-75
2022/08/05 12:59:18;;;;;;;5.45;2.88;;;;;;;;;;5091411;28;20012;-75
2022/08/05 13:01:53;;;;;;;7.00;2.95;;;;;;;;;;5091000;28;20092;-75
2022/08/05 13:04:19;;;;;;;5.57;2.95;;;;;;;;;;5090864;28;20405;-75
2022/08/05 13:06:46;;;;;;;6.20;3.15;;;;;;;;;;5091090;28;20034;-75
2022/08/05 13:09:13;;;;;;;6.88;2.70;;;;;;;;;;5091251;28;20521;-75
2022/08/05 13:11:40;;;;;;;5.28;2.70;;;;;;;;;;5090097;28;20016;-74
2022/08/05 13:14:19;;;;;;;6.13;2.58;;;;;;;;;;5088129;28;20021;-76
2022/08/05 13:16:49;;;;;;;5.53;2.80;;;;;;;;;;5092930;28;20035;-75
2022/08/05 13:19:16;;;;;;;5.50;3.08;;;;;;;;;;5094673;28;20024;-75
2022/08/05 13:21:45;;;;;;;5.75;2.42;;;;;;;;;;5095247;28;20026;-75
2022/08/05 13:24:11;;;;;;;7.95;2.47;;;;;;;;;;5094623;28;20026;-75
2022/08/05 13:26:37;;;;;;;6.65;2.80;;;;;;;;;;5094241;28;20038;-75
2022/08/05 13:29:04;;;;;;;5.97;2.53;;;;;;;;;;5094319;28;20036;-75
2022/08/05 13:31:30;;;;;;;7.85;2.78;;;;;;;;;;5094737;28;20021;-74
2022/08/05 13:33:57;;;;;;;8.43;3.10;;;;;;;;;;5093887;28;20032;-75
2022/08/05 13:36:23;;;;;;;7.43;2.63;;;;;;;;;;5093812;28;20486;-75
2022/08/05 13:38:49;;;;;;;6.93;2.58;;;;;;;;;;5093776;28;20500;-75
2022/08/05 13:41:16;;;;;;;5.13;2.50;;;;;;;;;;5094467;28;20040;-75
2022/08/05 13:43:45;;;;;;;4.07;2.42;;;;;;;;;;5094348;28;20032;-76
2022/08/05 13:46:11;;;;;;;7.80;2.75;;;;;;;;;;5093846;28;20022;-75
2022/08/05 13:48:38;;;;;;;8.85;1.98;;;;;;;;;;5093231;28;20031;-75
2022/08/05 13:51:07;;;;;;;6.97;2.35;;;;;;;;;;5094213;28;20036;-75
2022/08/05 13:53:34;;;;;;;4.60;2.28;;;;;;;;;;5093371;28;20050;-75
2022/08/05 13:56:01;;;;;;;3.40;2.17;;;;;;;;;;5093817;28;20032;-75
2022/08/05 13:58:27;;;;;;;5.72;2.13;;;;;;;;;;5092944;28;20028;-75
2022/08/05 14:00:54;;;;;;;6.13;2.50;;;;;;;;;;5094683;28;20020;-75
2022/08/05 14:03:20;;;;;;;6.60;2.45;;;;;;;;;;5094619;28;20028;-76
2022/08/05 14:05:47;;;;;;;7.88;2.20;;;;;;;;;;5094389;28;20042;-75
2022/08/05 14:08:13;;;;;;;3.45;2.30;;;;;;;;;;5093175;28;20028;-75
2022/08/05 14:10:40;;;;;;;9.38;2.58;;;;;;;;;;5094527;28;20050;-75
2022/08/05 14:13:06;;;;;;;7.68;2.10;;;;;;;;;;5094180;28;20468;-74
2022/08/05 14:15:33;;;;;;;7.10;2.30;;;;;;;;;;5093805;28;20030;-75
2022/08/05 14:17:59;;;;;;;8.60;2.42;;;;;;;;;;5094377;28;20062;-75
2022/08/05 14:20:26;;;;;;;6.43;2.38;;;;;;;;;;5094448;28;20073;-75
2022/08/05 14:22:53;;;;;;;8.23;2.45;;;;;;;;;;5093701;28;20028;-74
2022/08/05 14:25:20;;;;;;;2.88;1.92;;;;;;;;;;5094142;28;20431;-75
2022/08/05 14:27:48;;;;;;;5.45;2.33;;;;;;;;;;5094005;28;20352;-74
2022/08/05 14:30:15;;;;;;;8.68;2.40;;;;;;;;;;5094265;28;20038;-75
2022/08/05 14:32:41;;;;;;;5.97;2.10;;;;;;;;;;5093989;28;20038;-74
2022/08/05 14:35:08;;;;;;;7.90;2.40;;;;;;;;;;5092924;28;20024;-74
2022/08/05 14:37:34;;;;;;;8.25;2.20;;;;;;;;;;5093285;28;20020;-74
2022/08/05 14:40:01;;;;;;;5.50;2.30;;;;;;;;;;5093764;28;20044;-75
2022/08/05 14:42:27;;;;;;;5.45;2.20;;;;;;;;;;5091176;28;20068;-74
2022/08/05 14:44:53;;;;;;;4.30;2.10;;;;;;;;;;5093476;28;20471;-74
2022/08/05 14:47:20;;;;;;;4.78;2.10;;;;;;;;;;5093288;28;20030;-74
2022/08/05 14:49:46;;;;;;;6.10;2.05;;;;;;;;;;5093495;28;20051;-74
2022/08/05 14:52:12;;;;;;;3.85;2.17;;;;;;;;;;5092674;28;20027;-74
2022/08/05 14:54:39;;;;;;;7.38;2.47;;;;;;;;;;5092569;28;20024;-74
2022/08/05 14:57:05;;;;;;;5.03;1.98;;;;;;;;;;5092832;28;20661;-73
2022/08/05 14:59:32;;;;;;;9.30;2.67;;;;;;;;;;5092813;28;20020;-74
2022/08/05 15:01:58;;;;;;;3.13;2.15;;;;;;;;;;5093410;28;20028;-74
2022/08/05 15:04:24;;;;;;;7.35;2.42;;;;;;;;;;5093384;28;20024;-74